Flight Track Log - Related Links

Times and Time Zones

All times are in EDT time to prevent confusion due to time zone crossing. See the CTL309 flight status page for this flight to view local times or setup timezone preferences in your user account.

Time Position Orientation Groundspeed Altitude Reporting Facility
EDT Latitude Longitude Course Direction KTS MPH feet Rate Location/Type
Fri 03:43:12 AM 40.0656 -83.1253 243° Southwest 145 167 1,700  Level Indianapolis Center
Fri 03:44:21 AM 40.0433 -83.1817 243° Southwest 163 188 2,500 672 Climbing Indianapolis Center
Fri 03:45:17 AM 40.0211 -83.2239 236° Southwest 164 189 3,100 672 Climbing Indianapolis Center
Fri 03:46:17 AM 39.9969 -83.2761 239° Southwest 165 190 3,800 450 Climbing Indianapolis Center
Fri 03:47:17 AM 39.9711 -83.3300 238° Southwest 170 196 4,000 98 Climbing Indianapolis Center
Fri 03:48:20 AM 39.9425 -83.3881 237° Southwest 180 207 4,000  Level Indianapolis Center
Fri 03:49:19 AM 39.9139 -83.4450 237° Southwest 185 213 4,000  Level Indianapolis Center
Fri 03:50:18 AM 39.8878 -83.5028 240° Southwest 187 215 4,000  Level Indianapolis Center
Fri 03:51:18 AM 39.8594 -83.5594 237° Southwest 189 217 4,000  Level Indianapolis Center
Fri 03:52:21 AM 39.8306 -83.6167 237° Southwest 189 217 4,000  Level Indianapolis Center
Fri 03:53:19 AM 39.8017 -83.6756 237° Southwest 191 220 4,000 -51 Level Indianapolis Center
Fri 03:54:19 AM 39.7722 -83.7331 236° Southwest 191 220 3,900  Descending Indianapolis Center
Fri 03:55:26 AM 39.7375 -83.8017 237° Southwest 192 221 4,000 50 Climbing Indianapolis Center
Fri 03:56:19 AM 39.7119 -83.8475 234° Southwest 191 220 4,000  Level Indianapolis Center
Fri 03:57:20 AM 39.6808 -83.9042 235° Southwest 191 220 4,000  Level Indianapolis Center
Fri 03:58:19 AM 39.6514 -83.9622 237° Southwest 191 220 4,000  Level Indianapolis Center
Fri 03:59:20 AM 39.6244 -84.0217 240° Southwest 190 219 4,000 -50 Level Indianapolis Center
Fri 04:00:20 AM 39.5953 -84.0792 237° Southwest 190 219 3,900  Descending Indianapolis Center
Fri 04:01:23 AM 39.5658 -84.1353 236° Southwest 189 217 4,000 49 Climbing Indianapolis Center
Fri 04:02:22 AM 39.5367 -84.1956 238° Southwest 189 217 4,000  Level Indianapolis Center

Login

Don't have an account? Register now (free) for customized features, flight alerts, and more!